sensor_id;sensor_type;location;lat;lon;timestamp;P1;durP1;ratioP1;P2;durP2;ratioP2
73729;SDS011;62036;48.128;16.458;2023-05-20T00:00:08;5.75;;;3.80;;
73729;SDS011;62036;48.128;16.458;2023-05-20T00:02:35;7.25;;;4.00;;
73729;SDS011;62036;48.128;16.458;2023-05-20T00:05:01;7.05;;;3.97;;
73729;SDS011;62036;48.128;16.458;2023-05-20T00:07:27;6.40;;;4.00;;
73729;SDS011;62036;48.128;16.458;2023-05-20T00:09:53;8.10;;;4.97;;
73729;SDS011;62036;48.128;16.458;2023-05-20T00:12:19;5.57;;;3.83;;
73729;SDS011;62036;48.128;16.458;2023-05-20T00:14:45;5.65;;;3.33;;
73729;SDS011;62036;48.128;16.458;2023-05-20T00:17:11;3.97;;;3.05;;
73729;SDS011;62036;48.128;16.458;2023-05-20T00:19:37;8.80;;;4.60;;
73729;SDS011;62036;48.128;16.458;2023-05-20T00:22:03;5.30;;;3.83;;
73729;SDS011;62036;48.128;16.458;2023-05-20T00:24:29;6.85;;;4.22;;
73729;SDS011;62036;48.128;16.458;2023-05-20T00:26:55;10.07;;;4.68;;
73729;SDS011;62036;48.128;16.458;2023-05-20T00:29:21;6.32;;;3.50;;
73729;SDS011;62036;48.128;16.458;2023-05-20T00:31:47;6.32;;;3.75;;
73729;SDS011;62036;48.128;16.458;2023-05-20T00:34:13;6.60;;;4.05;;
73729;SDS011;62036;48.128;16.458;2023-05-20T00:36:39;7.50;;;3.78;;
73729;SDS011;62036;48.128;16.458;2023-05-20T00:39:07;6.97;;;3.63;;
73729;SDS011;62036;48.128;16.458;2023-05-20T00:41:33;9.13;;;4.25;;
73729;SDS011;62036;48.128;16.458;2023-05-20T00:43:59;7.35;;;4.28;;
73729;SDS011;62036;48.128;16.458;2023-05-20T00:46:25;7.93;;;3.92;;
73729;SDS011;62036;48.128;16.458;2023-05-20T00:48:53;8.32;;;4.35;;
73729;SDS011;62036;48.128;16.458;2023-05-20T00:51:19;8.90;;;4.47;;
73729;SDS011;62036;48.128;16.458;2023-05-20T00:53:46;8.48;;;4.53;;
73729;SDS011;62036;48.128;16.458;2023-05-20T00:56:12;8.20;;;4.53;;
73729;SDS011;62036;48.128;16.458;2023-05-20T00:58:38;9.40;;;4.97;;
73729;SDS011;62036;48.128;16.458;2023-05-20T01:01:05;7.32;;;4.70;;
73729;SDS011;62036;48.128;16.458;2023-05-20T01:03:31;10.93;;;5.25;;
73729;SDS011;62036;48.128;16.458;2023-05-20T01:05:57;9.48;;;5.38;;
73729;SDS011;62036;48.128;16.458;2023-05-20T01:08:23;8.63;;;4.70;;
73729;SDS011;62036;48.128;16.458;2023-05-20T01:11:09;8.27;;;5.15;;
73729;SDS011;62036;48.128;16.458;2023-05-20T01:13:39;11.13;;;4.65;;
73729;SDS011;62036;48.128;16.458;2023-05-20T01:16:07;11.07;;;6.00;;
73729;SDS011;62036;48.128;16.458;2023-05-20T01:18:34;13.48;;;7.13;;
73729;SDS011;62036;48.128;16.458;2023-05-20T01:21:01;10.57;;;5.28;;
73729;SDS011;62036;48.128;16.458;2023-05-20T01:23:37;9.85;;;5.70;;
73729;SDS011;62036;48.128;16.458;2023-05-20T01:26:06;8.40;;;5.45;;
73729;SDS011;62036;48.128;16.458;2023-05-20T01:28:35;9.13;;;5.50;;
73729;SDS011;62036;48.128;16.458;2023-05-20T01:31:04;12.73;;;6.15;;
73729;SDS011;62036;48.128;16.458;2023-05-20T01:33:30;11.43;;;5.90;;
73729;SDS011;62036;48.128;16.458;2023-05-20T01:35:59;12.13;;;6.13;;
73729;SDS011;62036;48.128;16.458;2023-05-20T01:38:25;14.57;;;5.88;;
73729;SDS011;62036;48.128;16.458;2023-05-20T01:40:52;9.07;;;5.20;;
73729;SDS011;62036;48.128;16.458;2023-05-20T01:43:18;11.15;;;6.20;;
73729;SDS011;62036;48.128;16.458;2023-05-20T01:45:45;11.25;;;5.47;;
73729;SDS011;62036;48.128;16.458;2023-05-20T01:48:11;15.18;;;6.38;;
73729;SDS011;62036;48.128;16.458;2023-05-20T01:50:38;11.23;;;6.38;;
73729;SDS011;62036;48.128;16.458;2023-05-20T01:53:04;11.85;;;7.10;;
73729;SDS011;62036;48.128;16.458;2023-05-20T01:55:33;14.85;;;5.82;;
73729;SDS011;62036;48.128;16.458;2023-05-20T01:57:59;14.20;;;6.93;;
73729;SDS011;62036;48.128;16.458;2023-05-20T02:00:25;9.48;;;5.18;;
73729;SDS011;62036;48.128;16.458;2023-05-20T02:02:52;10.57;;;5.80;;
73729;SDS011;62036;48.128;16.458;2023-05-20T02:05:18;12.07;;;6.38;;
73729;SDS011;62036;48.128;16.458;2023-05-20T02:07:44;13.40;;;6.10;;
73729;SDS011;62036;48.128;16.458;2023-05-20T02:10:10;12.05;;;6.45;;
73729;SDS011;62036;48.128;16.458;2023-05-20T02:12:36;12.32;;;6.35;;
73729;SDS011;62036;48.128;16.458;2023-05-20T02:15:02;12.73;;;6.35;;
73729;SDS011;62036;48.128;16.458;2023-05-20T02:17:28;11.63;;;6.20;;
73729;SDS011;62036;48.128;16.458;2023-05-20T02:19:54;10.30;;;6.00;;
73729;SDS011;62036;48.128;16.458;2023-05-20T02:22:20;12.30;;;6.13;;
73729;SDS011;62036;48.128;16.458;2023-05-20T02:24:46;8.98;;;5.30;;
73729;SDS011;62036;48.128;16.458;2023-05-20T02:27:12;8.73;;;5.25;;
73729;SDS011;62036;48.128;16.458;2023-05-20T02:29:38;9.32;;;5.07;;
73729;SDS011;62036;48.128;16.458;2023-05-20T02:32:04;10.15;;;5.75;;
73729;SDS011;62036;48.128;16.458;2023-05-20T02:34:31;11.80;;;6.47;;
73729;SDS011;62036;48.128;16.458;2023-05-20T02:36:57;8.93;;;5.00;;
73729;SDS011;62036;48.128;16.458;2023-05-20T02:39:23;12.32;;;5.18;;
73729;SDS011;62036;48.128;16.458;2023-05-20T02:41:49;7.72;;;5.35;;
73729;SDS011;62036;48.128;16.458;2023-05-20T02:44:15;11.18;;;6.43;;
73729;SDS011;62036;48.128;16.458;2023-05-20T02:46:42;14.00;;;5.85;;
73729;SDS011;62036;48.128;16.458;2023-05-20T02:49:08;13.32;;;6.25;;
73729;SDS011;62036;48.128;16.458;2023-05-20T02:51:34;11.15;;;5.95;;
73729;SDS011;62036;48.128;16.458;2023-05-20T02:53:59;12.82;;;6.53;;
73729;SDS011;62036;48.128;16.458;2023-05-20T02:56:25;14.25;;;6.20;;
73729;SDS011;62036;48.128;16.458;2023-05-20T02:58:52;10.93;;;6.55;;
73729;SDS011;62036;48.128;16.458;2023-05-20T03:01:18;12.57;;;6.53;;
73729;SDS011;62036;48.128;16.458;2023-05-20T03:03:44;13.13;;;7.55;;
73729;SDS011;62036;48.128;16.458;2023-05-20T03:06:10;10.50;;;5.55;;
73729;SDS011;62036;48.128;16.458;2023-05-20T03:08:36;9.73;;;5.22;;
73729;SDS011;62036;48.128;16.458;2023-05-20T03:11:03;12.05;;;5.72;;
73729;SDS011;62036;48.128;16.458;2023-05-20T03:13:29;13.65;;;5.28;;
73729;SDS011;62036;48.128;16.458;2023-05-20T03:15:55;11.05;;;5.70;;
73729;SDS011;62036;48.128;16.458;2023-05-20T03:18:22;12.52;;;6.22;;
73729;SDS011;62036;48.128;16.458;2023-05-20T03:20:48;15.20;;;5.65;;
73729;SDS011;62036;48.128;16.458;2023-05-20T03:23:14;9.98;;;5.30;;
73729;SDS011;62036;48.128;16.458;2023-05-20T03:25:40;13.38;;;5.45;;
73729;SDS011;62036;48.128;16.458;2023-05-20T03:28:06;12.75;;;5.88;;
73729;SDS011;62036;48.128;16.458;2023-05-20T03:30:32;11.65;;;6.55;;
73729;SDS011;62036;48.128;16.458;2023-05-20T03:32:58;11.85;;;6.43;;
73729;SDS011;62036;48.128;16.458;2023-05-20T03:35:24;10.50;;;5.55;;
73729;SDS011;62036;48.128;16.458;2023-05-20T03:37:51;12.98;;;5.38;;
73729;SDS011;62036;48.128;16.458;2023-05-20T03:40:17;13.25;;;6.40;;
73729;SDS011;62036;48.128;16.458;2023-05-20T03:42:45;12.07;;;6.53;;
73729;SDS011;62036;48.128;16.458;2023-05-20T03:45:11;10.98;;;5.72;;
73729;SDS011;62036;48.128;16.458;2023-05-20T03:47:37;11.75;;;5.32;;
73729;SDS011;62036;48.128;16.458;2023-05-20T03:50:03;11.45;;;6.00;;
73729;SDS011;62036;48.128;16.458;2023-05-20T03:52:31;12.18;;;5.63;;
73729;SDS011;62036;48.128;16.458;2023-05-20T03:54:57;13.48;;;5.97;;
73729;SDS011;62036;48.128;16.458;2023-05-20T03:57:23;12.75;;;6.70;;
73729;SDS011;62036;48.128;16.458;2023-05-20T03:59:49;13.40;;;6.75;;
73729;SDS011;62036;48.128;16.458;2023-05-20T04:02:15;13.85;;;6.65;;
73729;SDS011;62036;48.128;16.458;2023-05-20T04:04:41;11.07;;;5.10;;
73729;SDS011;62036;48.128;16.458;2023-05-20T04:07:08;8.68;;;5.85;;
73729;SDS011;62036;48.128;16.458;2023-05-20T04:09:34;9.05;;;4.63;;
73729;SDS011;62036;48.128;16.458;2023-05-20T04:12:00;10.45;;;6.45;;
73729;SDS011;62036;48.128;16.458;2023-05-20T04:14:27;17.13;;;7.65;;
73729;SDS011;62036;48.128;16.458;2023-05-20T04:16:53;14.55;;;6.57;;
73729;SDS011;62036;48.128;16.458;2023-05-20T04:19:19;16.60;;;7.63;;
73729;SDS011;62036;48.128;16.458;2023-05-20T04:21:45;11.40;;;6.10;;
73729;SDS011;62036;48.128;16.458;2023-05-20T04:24:11;12.73;;;6.30;;
73729;SDS011;62036;48.128;16.458;2023-05-20T04:26:37;11.13;;;6.55;;
73729;SDS011;62036;48.128;16.458;2023-05-20T04:29:03;11.82;;;6.97;;
73729;SDS011;62036;48.128;16.458;2023-05-20T04:31:29;13.65;;;7.18;;
73729;SDS011;62036;48.128;16.458;2023-05-20T04:33:55;14.63;;;7.32;;
73729;SDS011;62036;48.128;16.458;2023-05-20T04:36:22;10.50;;;5.20;;
73729;SDS011;62036;48.128;16.458;2023-05-20T04:38:52;14.13;;;6.03;;
73729;SDS011;62036;48.128;16.458;2023-05-20T04:41:19;11.23;;;6.00;;
73729;SDS011;62036;48.128;16.458;2023-05-20T04:43:45;11.50;;;6.18;;
73729;SDS011;62036;48.128;16.458;2023-05-20T04:46:11;13.05;;;5.50;;
73729;SDS011;62036;48.128;16.458;2023-05-20T04:48:38;11.07;;;6.03;;
73729;SDS011;62036;48.128;16.458;2023-05-20T04:51:04;11.57;;;6.05;;
73729;SDS011;62036;48.128;16.458;2023-05-20T04:53:30;10.70;;;5.25;;
73729;SDS011;62036;48.128;16.458;2023-05-20T04:55:57;15.05;;;7.13;;
73729;SDS011;62036;48.128;16.458;2023-05-20T04:58:23;11.93;;;6.22;;
73729;SDS011;62036;48.128;16.458;2023-05-20T05:00:50;13.65;;;7.40;;
73729;SDS011;62036;48.128;16.458;2023-05-20T05:03:16;12.10;;;6.18;;
73729;SDS011;62036;48.128;16.458;2023-05-20T05:05:42;11.05;;;6.82;;
73729;SDS011;62036;48.128;16.458;2023-05-20T05:08:09;17.42;;;6.90;;
73729;SDS011;62036;48.128;16.458;2023-05-20T05:10:38;13.70;;;7.07;;
73729;SDS011;62036;48.128;16.458;2023-05-20T05:13:04;16.98;;;7.30;;
73729;SDS011;62036;48.128;16.458;2023-05-20T05:15:31;11.43;;;6.15;;
73729;SDS011;62036;48.128;16.458;2023-05-20T05:17:57;16.95;;;6.78;;
73729;SDS011;62036;48.128;16.458;2023-05-20T05:20:23;15.18;;;7.40;;
73729;SDS011;62036;48.128;16.458;2023-05-20T05:22:49;12.57;;;6.13;;
73729;SDS011;62036;48.128;16.458;2023-05-20T05:25:16;13.70;;;7.20;;
73729;SDS011;62036;48.128;16.458;2023-05-20T05:27:42;11.88;;;7.03;;
73729;SDS011;62036;48.128;16.458;2023-05-20T05:30:08;14.55;;;6.78;;
73729;SDS011;62036;48.128;16.458;2023-05-20T05:32:35;13.20;;;6.00;;
73729;SDS011;62036;48.128;16.458;2023-05-20T05:35:02;13.93;;;7.30;;
73729;SDS011;62036;48.128;16.458;2023-05-20T05:37:28;23.02;;;11.40;;
73729;SDS011;62036;48.128;16.458;2023-05-20T05:39:54;12.57;;;6.82;;
73729;SDS011;62036;48.128;16.458;2023-05-20T05:42:20;16.65;;;7.25;;
73729;SDS011;62036;48.128;16.458;2023-05-20T05:44:46;13.38;;;7.05;;
73729;SDS011;62036;48.128;16.458;2023-05-20T05:47:13;18.95;;;7.90;;
73729;SDS011;62036;48.128;16.458;2023-05-20T05:49:39;14.88;;;6.47;;
73729;SDS011;62036;48.128;16.458;2023-05-20T05:52:05;15.98;;;6.65;;
73729;SDS011;62036;48.128;16.458;2023-05-20T05:54:31;11.95;;;7.53;;
73729;SDS011;62036;48.128;16.458;2023-05-20T05:56:57;11.73;;;6.35;;
73729;SDS011;62036;48.128;16.458;2023-05-20T05:59:23;12.13;;;6.10;;
73729;SDS011;62036;48.128;16.458;2023-05-20T06:01:49;14.27;;;7.03;;
73729;SDS011;62036;48.128;16.458;2023-05-20T06:04:15;10.43;;;6.35;;
73729;SDS011;62036;48.128;16.458;2023-05-20T06:06:41;11.02;;;6.05;;
73729;SDS011;62036;48.128;16.458;2023-05-20T06:09:07;11.05;;;5.75;;
73729;SDS011;62036;48.128;16.458;2023-05-20T06:11:33;14.40;;;7.45;;
73729;SDS011;62036;48.128;16.458;2023-05-20T06:14:00;11.63;;;6.07;;
73729;SDS011;62036;48.128;16.458;2023-05-20T06:16:26;17.10;;;7.05;;
73729;SDS011;62036;48.128;16.458;2023-05-20T06:18:52;13.20;;;6.10;;
73729;SDS011;62036;48.128;16.458;2023-05-20T06:21:21;13.95;;;6.22;;
73729;SDS011;62036;48.128;16.458;2023-05-20T06:23:47;12.32;;;6.53;;
73729;SDS011;62036;48.128;16.458;2023-05-20T06:26:13;12.45;;;6.57;;
73729;SDS011;62036;48.128;16.458;2023-05-20T06:28:39;17.58;;;6.07;;
73729;SDS011;62036;48.128;16.458;2023-05-20T06:31:06;15.40;;;6.60;;
73729;SDS011;62036;48.128;16.458;2023-05-20T06:33:32;12.93;;;6.53;;
73729;SDS011;62036;48.128;16.458;2023-05-20T06:35:59;16.02;;;6.97;;
73729;SDS011;62036;48.128;16.458;2023-05-20T06:38:26;14.40;;;6.82;;
73729;SDS011;62036;48.128;16.458;2023-05-20T06:40:52;15.45;;;6.70;;
73729;SDS011;62036;48.128;16.458;2023-05-20T06:43:18;11.27;;;6.03;;
73729;SDS011;62036;48.128;16.458;2023-05-20T06:45:44;9.73;;;5.45;;
73729;SDS011;62036;48.128;16.458;2023-05-20T06:48:10;13.73;;;6.80;;
73729;SDS011;62036;48.128;16.458;2023-05-20T06:50:36;14.23;;;6.43;;
73729;SDS011;62036;48.128;16.458;2023-05-20T06:53:02;10.75;;;6.47;;
73729;SDS011;62036;48.128;16.458;2023-05-20T06:55:29;13.90;;;6.47;;
73729;SDS011;62036;48.128;16.458;2023-05-20T06:57:55;12.20;;;5.47;;
73729;SDS011;62036;48.128;16.458;2023-05-20T07:00:21;11.15;;;5.95;;
73729;SDS011;62036;48.128;16.458;2023-05-20T07:02:50;12.90;;;6.75;;
73729;SDS011;62036;48.128;16.458;2023-05-20T07:05:16;13.07;;;6.35;;
73729;SDS011;62036;48.128;16.458;2023-05-20T07:07:43;11.27;;;6.00;;
73729;SDS011;62036;48.128;16.458;2023-05-20T07:10:09;9.10;;;5.10;;
73729;SDS011;62036;48.128;16.458;2023-05-20T07:12:36;10.07;;;5.82;;
73729;SDS011;62036;48.128;16.458;2023-05-20T07:15:02;11.68;;;6.05;;
73729;SDS011;62036;48.128;16.458;2023-05-20T07:17:28;10.50;;;5.70;;
73729;SDS011;62036;48.128;16.458;2023-05-20T07:19:54;12.07;;;6.30;;
73729;SDS011;62036;48.128;16.458;2023-05-20T07:22:20;12.45;;;6.88;;
73729;SDS011;62036;48.128;16.458;2023-05-20T07:24:46;16.73;;;6.65;;
73729;SDS011;62036;48.128;16.458;2023-05-20T07:27:12;11.32;;;5.78;;
73729;SDS011;62036;48.128;16.458;2023-05-20T07:29:38;9.30;;;5.68;;
73729;SDS011;62036;48.128;16.458;2023-05-20T07:32:04;12.27;;;5.53;;
73729;SDS011;62036;48.128;16.458;2023-05-20T07:34:30;12.35;;;6.10;;
73729;SDS011;62036;48.128;16.458;2023-05-20T07:36:57;13.00;;;6.25;;
73729;SDS011;62036;48.128;16.458;2023-05-20T07:39:23;10.25;;;5.95;;
73729;SDS011;62036;48.128;16.458;2023-05-20T07:41:49;8.25;;;5.22;;
73729;SDS011;62036;48.128;16.458;2023-05-20T07:44:15;13.30;;;6.82;;
73729;SDS011;62036;48.128;16.458;2023-05-20T07:46:43;12.70;;;6.07;;
73729;SDS011;62036;48.128;16.458;2023-05-20T07:49:09;10.65;;;5.15;;
73729;SDS011;62036;48.128;16.458;2023-05-20T07:51:35;11.85;;;6.28;;
73729;SDS011;62036;48.128;16.458;2023-05-20T07:54:02;14.18;;;6.45;;
73729;SDS011;62036;48.128;16.458;2023-05-20T07:56:28;11.43;;;6.15;;
73729;SDS011;62036;48.128;16.458;2023-05-20T07:58:55;10.35;;;5.65;;
73729;SDS011;62036;48.128;16.458;2023-05-20T08:01:22;13.00;;;5.75;;
73729;SDS011;62036;48.128;16.458;2023-05-20T08:03:48;9.60;;;5.93;;
73729;SDS011;62036;48.128;16.458;2023-05-20T08:06:14;10.23;;;5.57;;
73729;SDS011;62036;48.128;16.458;2023-05-20T08:08:41;14.23;;;6.15;;
73729;SDS011;62036;48.128;16.458;2023-05-20T08:11:07;11.13;;;5.35;;
73729;SDS011;62036;48.128;16.458;2023-05-20T08:13:34;11.70;;;5.40;;
73729;SDS011;62036;48.128;16.458;2023-05-20T08:16:00;11.52;;;5.68;;
73729;SDS011;62036;48.128;16.458;2023-05-20T08:18:28;13.30;;;5.93;;
73729;SDS011;62036;48.128;16.458;2023-05-20T08:20:54;8.60;;;6.18;;
73729;SDS011;62036;48.128;16.458;2023-05-20T08:23:20;11.98;;;5.93;;
73729;SDS011;62036;48.128;16.458;2023-05-20T08:25:46;10.27;;;5.63;;
73729;SDS011;62036;48.128;16.458;2023-05-20T08:28:12;12.25;;;6.03;;
73729;SDS011;62036;48.128;16.458;2023-05-20T08:30:38;11.45;;;6.15;;
73729;SDS011;62036;48.128;16.458;2023-05-20T08:33:05;11.00;;;5.78;;
73729;SDS011;62036;48.128;16.458;2023-05-20T08:35:31;10.57;;;5.60;;
73729;SDS011;62036;48.128;16.458;2023-05-20T08:37:57;12.20;;;5.72;;
73729;SDS011;62036;48.128;16.458;2023-05-20T08:40:23;9.70;;;5.55;;
73729;SDS011;62036;48.128;16.458;2023-05-20T08:42:51;9.23;;;5.30;;
73729;SDS011;62036;48.128;16.458;2023-05-20T08:45:18;9.85;;;4.82;;
73729;SDS011;62036;48.128;16.458;2023-05-20T08:47:45;8.52;;;4.70;;
73729;SDS011;62036;48.128;16.458;2023-05-20T08:50:11;8.35;;;4.85;;
73729;SDS011;62036;48.128;16.458;2023-05-20T08:52:44;9.27;;;5.60;;
73729;SDS011;62036;48.128;16.458;2023-05-20T08:55:14;9.32;;;5.45;;
73729;SDS011;62036;48.128;16.458;2023-05-20T08:57:46;9.63;;;5.28;;
73729;SDS011;62036;48.128;16.458;2023-05-20T09:00:16;6.13;;;4.32;;
73729;SDS011;62036;48.128;16.458;2023-05-20T09:02:43;9.40;;;5.07;;
73729;SDS011;62036;48.128;16.458;2023-05-20T09:05:10;9.75;;;5.15;;
73729;SDS011;62036;48.128;16.458;2023-05-20T09:07:36;9.80;;;4.78;;
73729;SDS011;62036;48.128;16.458;2023-05-20T09:10:02;9.30;;;5.38;;
73729;SDS011;62036;48.128;16.458;2023-05-20T09:12:28;6.88;;;4.18;;
73729;SDS011;62036;48.128;16.458;2023-05-20T09:14:54;7.93;;;4.55;;
73729;SDS011;62036;48.128;16.458;2023-05-20T09:17:22;8.48;;;5.25;;
73729;SDS011;62036;48.128;16.458;2023-05-20T09:19:48;8.30;;;4.88;;
73729;SDS011;62036;48.128;16.458;2023-05-20T09:22:25;7.95;;;4.47;;
73729;SDS011;62036;48.128;16.458;2023-05-20T09:24:52;8.70;;;5.20;;
73729;SDS011;62036;48.128;16.458;2023-05-20T09:27:21;7.75;;;5.15;;
73729;SDS011;62036;48.128;16.458;2023-05-20T09:29:49;9.00;;;4.85;;
73729;SDS011;62036;48.128;16.458;2023-05-20T09:32:15;5.13;;;3.97;;
73729;SDS011;62036;48.128;16.458;2023-05-20T09:34:42;5.57;;;3.55;;
73729;SDS011;62036;48.128;16.458;2023-05-20T09:37:09;7.10;;;4.63;;
73729;SDS011;62036;48.128;16.458;2023-05-20T09:39:40;7.22;;;4.22;;
73729;SDS011;62036;48.128;16.458;2023-05-20T09:42:22;6.38;;;4.57;;
73729;SDS011;62036;48.128;16.458;2023-05-20T09:44:53;7.22;;;4.45;;
73729;SDS011;62036;48.128;16.458;2023-05-20T09:47:20;7.32;;;4.40;;
73729;SDS011;62036;48.128;16.458;2023-05-20T09:49:49;7.90;;;4.25;;
73729;SDS011;62036;48.128;16.458;2023-05-20T09:52:15;8.38;;;5.15;;
73729;SDS011;62036;48.128;16.458;2023-05-20T09:54:42;7.88;;;4.43;;
73729;SDS011;62036;48.128;16.458;2023-05-20T09:57:08;6.70;;;4.43;;
73729;SDS011;62036;48.128;16.458;2023-05-20T09:59:36;7.90;;;4.82;;
73729;SDS011;62036;48.128;16.458;2023-05-20T10:02:04;8.18;;;4.20;;
73729;SDS011;62036;48.128;16.458;2023-05-20T10:04:30;9.05;;;5.25;;
73729;SDS011;62036;48.128;16.458;2023-05-20T10:17:26;6.55;;;4.05;;
73729;SDS011;62036;48.128;16.458;2023-05-20T10:19:57;6.90;;;4.40;;
73729;SDS011;62036;48.128;16.458;2023-05-20T10:22:27;7.13;;;4.75;;
73729;SDS011;62036;48.128;16.458;2023-05-20T10:24:57;7.28;;;4.47;;
73729;SDS011;62036;48.128;16.458;2023-05-20T10:27:24;8.95;;;5.38;;
73729;SDS011;62036;48.128;16.458;2023-05-20T10:29:50;7.82;;;4.50;;
73729;SDS011;62036;48.128;16.458;2023-05-20T10:32:29;7.47;;;4.30;;
73729;SDS011;62036;48.128;16.458;2023-05-20T10:35:00;7.32;;;4.28;;
73729;SDS011;62036;48.128;16.458;2023-05-20T10:37:30;7.15;;;4.30;;
73729;SDS011;62036;48.128;16.458;2023-05-20T10:40:10;5.57;;;4.20;;
73729;SDS011;62036;48.128;16.458;2023-05-20T10:42:36;5.65;;;4.15;;
73729;SDS011;62036;48.128;16.458;2023-05-20T10:45:03;5.20;;;3.80;;
73729;SDS011;62036;48.128;16.458;2023-05-20T10:47:30;4.72;;;3.88;;
73729;SDS011;62036;48.128;16.458;2023-05-20T10:49:56;7.20;;;4.32;;
73729;SDS011;62036;48.128;16.458;2023-05-20T10:52:22;6.18;;;4.15;;
73729;SDS011;62036;48.128;16.458;2023-05-20T10:54:55;7.78;;;4.80;;
73729;SDS011;62036;48.128;16.458;2023-05-20T10:57:22;6.35;;;4.20;;
73729;SDS011;62036;48.128;16.458;2023-05-20T10:59:48;7.07;;;4.25;;
73729;SDS011;62036;48.128;16.458;2023-05-20T11:02:20;5.22;;;4.05;;
73729;SDS011;62036;48.128;16.458;2023-05-20T11:04:50;5.75;;;3.88;;
73729;SDS011;62036;48.128;16.458;2023-05-20T11:07:24;6.07;;;4.25;;
73729;SDS011;62036;48.128;16.458;2023-05-20T11:09:50;6.03;;;3.90;;
73729;SDS011;62036;48.128;16.458;2023-05-20T11:12:16;5.72;;;3.50;;
73729;SDS011;62036;48.128;16.458;2023-05-20T11:14:42;5.53;;;4.30;;
73729;SDS011;62036;48.128;16.458;2023-05-20T11:17:08;6.50;;;4.78;;
73729;SDS011;62036;48.128;16.458;2023-05-20T11:19:36;5.35;;;4.10;;
73729;SDS011;62036;48.128;16.458;2023-05-20T11:22:02;6.13;;;4.00;;
73729;SDS011;62036;48.128;16.458;2023-05-20T11:24:28;4.68;;;3.55;;
73729;SDS011;62036;48.128;16.458;2023-05-20T11:26:54;5.45;;;4.40;;
73729;SDS011;62036;48.128;16.458;2023-05-20T11:29:21;6.72;;;4.40;;
73729;SDS011;62036;48.128;16.458;2023-05-20T11:31:50;7.75;;;4.18;;
73729;SDS011;62036;48.128;16.458;2023-05-20T11:34:20;7.13;;;4.95;;
73729;SDS011;62036;48.128;16.458;2023-05-20T11:36:46;9.18;;;5.40;;
73729;SDS011;62036;48.128;16.458;2023-05-20T11:39:14;5.82;;;4.20;;
73729;SDS011;62036;48.128;16.458;2023-05-20T11:41:40;5.90;;;4.00;;
73729;SDS011;62036;48.128;16.458;2023-05-20T11:44:10;5.30;;;3.83;;
73729;SDS011;62036;48.128;16.458;2023-05-20T11:46:41;5.35;;;4.22;;
73729;SDS011;62036;48.128;16.458;2023-05-20T11:49:07;5.95;;;3.92;;
73729;SDS011;62036;48.128;16.458;2023-05-20T11:51:33;5.95;;;4.05;;
73729;SDS011;62036;48.128;16.458;2023-05-20T11:54:03;5.78;;;4.18;;
73729;SDS011;62036;48.128;16.458;2023-05-20T11:56:32;4.57;;;3.70;;
73729;SDS011;62036;48.128;16.458;2023-05-20T11:59:01;4.18;;;3.58;;
73729;SDS011;62036;48.128;16.458;2023-05-20T12:01:32;5.53;;;4.00;;
73729;SDS011;62036;48.128;16.458;2023-05-20T12:04:01;4.60;;;3.33;;
73729;SDS011;62036;48.128;16.458;2023-05-20T12:06:27;5.13;;;3.63;;
73729;SDS011;62036;48.128;16.458;2023-05-20T12:08:53;4.53;;;3.35;;
73729;SDS011;62036;48.128;16.458;2023-05-20T12:11:19;4.65;;;2.78;;
73729;SDS011;62036;48.128;16.458;2023-05-20T12:13:45;5.22;;;2.90;;
73729;SDS011;62036;48.128;16.458;2023-05-20T12:16:11;3.78;;;2.88;;
73729;SDS011;62036;48.128;16.458;2023-05-20T12:18:37;5.50;;;3.05;;
73729;SDS011;62036;48.128;16.458;2023-05-20T12:21:03;4.80;;;3.13;;
73729;SDS011;62036;48.128;16.458;2023-05-20T12:23:32;3.63;;;2.65;;
73729;SDS011;62036;48.128;16.458;2023-05-20T12:25:58;3.30;;;2.88;;
73729;SDS011;62036;48.128;16.458;2023-05-20T12:28:25;5.28;;;3.30;;
73729;SDS011;62036;48.128;16.458;2023-05-20T12:30:51;4.78;;;3.05;;
73729;SDS011;62036;48.128;16.458;2023-05-20T12:33:17;6.88;;;3.40;;
73729;SDS011;62036;48.128;16.458;2023-05-20T12:35:44;3.08;;;2.70;;
73729;SDS011;62036;48.128;16.458;2023-05-20T12:38:10;4.55;;;3.17;;
73729;SDS011;62036;48.128;16.458;2023-05-20T12:40:36;3.28;;;2.63;;
73729;SDS011;62036;48.128;16.458;2023-05-20T12:43:03;4.70;;;3.40;;
73729;SDS011;62036;48.128;16.458;2023-05-20T12:45:29;4.15;;;2.97;;
73729;SDS011;62036;48.128;16.458;2023-05-20T12:47:55;3.85;;;2.60;;
73729;SDS011;62036;48.128;16.458;2023-05-20T12:50:22;5.05;;;2.80;;
73729;SDS011;62036;48.128;16.458;2023-05-20T12:52:48;4.80;;;3.20;;
73729;SDS011;62036;48.128;16.458;2023-05-20T12:55:14;3.95;;;2.70;;
73729;SDS011;62036;48.128;16.458;2023-05-20T12:57:43;4.03;;;2.95;;
73729;SDS011;62036;48.128;16.458;2023-05-20T13:00:10;3.35;;;2.78;;
73729;SDS011;62036;48.128;16.458;2023-05-20T13:02:36;4.20;;;2.80;;
73729;SDS011;62036;48.128;16.458;2023-05-20T13:05:03;3.92;;;2.97;;
73729;SDS011;62036;48.128;16.458;2023-05-20T13:07:29;4.45;;;3.22;;
73729;SDS011;62036;48.128;16.458;2023-05-20T13:09:56;4.38;;;2.88;;
73729;SDS011;62036;48.128;16.458;2023-05-20T13:12:22;4.18;;;2.90;;
73729;SDS011;62036;48.128;16.458;2023-05-20T13:14:48;4.65;;;3.03;;
73729;SDS011;62036;48.128;16.458;2023-05-20T13:17:14;3.55;;;2.67;;
73729;SDS011;62036;48.128;16.458;2023-05-20T13:19:40;5.07;;;3.15;;
73729;SDS011;62036;48.128;16.458;2023-05-20T13:22:06;4.22;;;2.30;;
73729;SDS011;62036;48.128;16.458;2023-05-20T13:24:35;3.92;;;2.88;;
73729;SDS011;62036;48.128;16.458;2023-05-20T13:27:02;4.70;;;3.10;;
73729;SDS011;62036;48.128;16.458;2023-05-20T13:29:28;3.58;;;2.80;;
73729;SDS011;62036;48.128;16.458;2023-05-20T13:31:54;4.43;;;2.75;;
73729;SDS011;62036;48.128;16.458;2023-05-20T13:34:20;3.83;;;2.88;;
73729;SDS011;62036;48.128;16.458;2023-05-20T13:36:46;3.63;;;2.65;;
73729;SDS011;62036;48.128;16.458;2023-05-20T13:39:16;3.72;;;3.05;;
73729;SDS011;62036;48.128;16.458;2023-05-20T13:41:42;3.55;;;2.83;;
73729;SDS011;62036;48.128;16.458;2023-05-20T13:44:08;3.40;;;2.42;;
73729;SDS011;62036;48.128;16.458;2023-05-20T13:46:34;4.18;;;2.90;;
73729;SDS011;62036;48.128;16.458;2023-05-20T13:49:00;3.97;;;2.90;;
73729;SDS011;62036;48.128;16.458;2023-05-20T13:51:26;3.28;;;2.67;;
73729;SDS011;62036;48.128;16.458;2023-05-20T13:53:53;3.75;;;2.60;;
73729;SDS011;62036;48.128;16.458;2023-05-20T13:56:19;3.90;;;2.90;;
73729;SDS011;62036;48.128;16.458;2023-05-20T13:58:45;4.20;;;2.83;;
73729;SDS011;62036;48.128;16.458;2023-05-20T14:01:12;8.77;;;5.03;;
73729;SDS011;62036;48.128;16.458;2023-05-20T14:03:39;4.30;;;2.63;;
73729;SDS011;62036;48.128;16.458;2023-05-20T14:06:06;3.75;;;2.88;;
73729;SDS011;62036;48.128;16.458;2023-05-20T14:08:32;4.38;;;2.97;;
73729;SDS011;62036;48.128;16.458;2023-05-20T14:10:58;3.53;;;2.55;;
73729;SDS011;62036;48.128;16.458;2023-05-20T14:13:24;5.30;;;2.80;;
73729;SDS011;62036;48.128;16.458;2023-05-20T14:15:50;4.28;;;2.83;;
73729;SDS011;62036;48.128;16.458;2023-05-20T14:18:18;4.47;;;2.78;;
73729;SDS011;62036;48.128;16.458;2023-05-20T14:20:45;3.88;;;2.63;;
73729;SDS011;62036;48.128;16.458;2023-05-20T14:23:11;3.65;;;3.25;;
73729;SDS011;62036;48.128;16.458;2023-05-20T14:25:37;4.38;;;3.13;;
73729;SDS011;62036;48.128;16.458;2023-05-20T14:28:04;3.58;;;2.78;;
73729;SDS011;62036;48.128;16.458;2023-05-20T14:30:30;4.18;;;3.10;;
73729;SDS011;62036;48.128;16.458;2023-05-20T14:32:56;5.10;;;3.00;;
73729;SDS011;62036;48.128;16.458;2023-05-20T14:35:22;6.13;;;4.13;;